Time;durP1;ratioP1;P1;durP2;ratioP2;P2;SDS_P1;SDS_P2;PMS_P1;PMS_P2;Temp;Humidity;BMP_temperature;BMP_pressure;BME280_temperature;BME280_humidity;BME280_pressure;Samples;Min_cycle;Max_cycle;Signal;HPM_P1;HPM_P2
2023/09/01 00:02:44;;;;;;;11.27;2.80;;;11.00;99.90;;;;;;7337647;32;20152;-57
2023/09/01 00:06:46;;;;;;;4.62;2.67;;;11.10;99.90;;;;;;7340212;32;20329;-56
2023/09/01 00:10:48;;;;;;;9.30;3.28;;;11.20;99.90;;;;;;7339702;32;20611;-57
2023/09/01 00:14:50;;;;;;;7.15;3.10;;;11.20;99.90;;;;;;7344561;32;20256;-57
2023/09/01 00:18:52;;;;;;;10.63;2.90;;;11.20;99.90;;;;;;7343978;32;20543;-57
2023/09/01 00:22:53;;;;;;;3.80;2.75;;;11.40;99.90;;;;;;7342365;32;20104;-59
2023/09/01 00:26:55;;;;;;;11.43;3.22;;;11.40;99.90;;;;;;7349455;32;20243;-57
2023/09/01 00:30:59;;;;;;;7.62;2.78;;;11.50;99.90;;;;;;7347197;32;20099;-58
2023/09/01 00:35:01;;;;;;;5.93;2.65;;;11.50;99.90;;;;;;7340105;32;20210;-56
2023/09/01 00:39:03;;;;;;;6.75;2.90;;;11.50;99.90;;;;;;7345172;32;20142;-57
2023/09/01 00:43:04;;;;;;;6.07;2.92;;;11.60;99.90;;;;;;7348780;32;20486;-57
2023/09/01 00:47:06;;;;;;;7.07;2.75;;;11.70;99.90;;;;;;7346200;32;20141;-57
2023/09/01 00:51:08;;;;;;;5.57;2.80;;;11.80;99.90;;;;;;7352491;32;20115;-59
2023/09/01 00:55:11;;;;;;;4.90;2.62;;;11.80;99.90;;;;;;7348079;32;20627;-57
2023/09/01 00:59:14;;;;;;;8.32;3.15;;;12.00;99.90;;;;;;7343678;32;20250;-57
2023/09/01 01:03:15;;;;;;;7.03;3.05;;;12.10;99.90;;;;;;7338903;32;20758;-58
2023/09/01 01:07:31;;;;;;;10.18;3.15;;;12.00;99.90;;;;;;7337265;32;20538;-57
2023/09/01 01:11:35;;;;;;;6.15;2.70;;;12.10;99.90;;;;;;7342546;32;20572;-58
2023/09/01 01:15:39;;;;;;;9.02;3.37;;;12.10;99.90;;;;;;7339637;32;20687;-57
2023/09/01 01:19:59;;;;;;;6.57;3.33;;;12.20;99.90;;;;;;7349407;32;20103;-57
2023/09/01 01:24:01;;;;;;;6.75;2.70;;;12.30;99.90;;;;;;7336627;32;20194;-57
2023/09/01 01:28:07;;;;;;;5.07;2.95;;;12.20;99.90;;;;;;7348295;32;20103;-57
2023/09/01 01:32:09;;;;;;;6.40;3.10;;;12.30;99.90;;;;;;7345105;32;20181;-57
2023/09/01 01:36:19;;;;;;;8.02;3.20;;;12.30;99.90;;;;;;7344276;32;20271;-57
2023/09/01 01:40:24;;;;;;;7.25;2.97;;;12.30;99.90;;;;;;7345650;32;20877;-57
2023/09/01 01:44:29;;;;;;;10.93;2.72;;;12.40;99.90;;;;;;7348141;32;20123;-57
2023/09/01 01:48:36;;;;;;;4.50;3.00;;;12.40;99.90;;;;;;7337474;32;20330;-58
2023/09/01 01:52:38;;;;;;;6.75;2.75;;;12.30;99.90;;;;;;7342777;32;20254;-58
2023/09/01 01:56:40;;;;;;;6.82;2.92;;;12.30;99.90;;;;;;7346100;32;20179;-57
2023/09/01 02:00:42;;;;;;;5.78;2.83;;;12.20;99.90;;;;;;7345888;32;20268;-56
2023/09/01 02:04:44;;;;;;;5.18;2.78;;;12.20;99.90;;;;;;7351040;32;20196;-57
2023/09/01 02:08:46;;;;;;;10.20;3.53;;;12.20;99.90;;;;;;7354754;32;20188;-57
2023/09/01 02:12:47;;;;;;;5.70;2.85;;;12.20;99.90;;;;;;7340709;32;20811;-58
2023/09/01 02:16:49;;;;;;;6.75;3.50;;;12.20;99.90;;;;;;7350824;32;20336;-58
2023/09/01 02:20:51;;;;;;;7.20;3.40;;;12.30;99.90;;;;;;7346982;32;20131;-57
2023/09/01 02:24:53;;;;;;;8.40;3.37;;;12.30;99.90;;;;;;7351313;32;20201;-57
2023/09/01 02:28:54;;;;;;;6.47;2.75;;;12.40;99.90;;;;;;7354790;32;20216;-59
2023/09/01 02:32:56;;;;;;;6.95;3.45;;;12.50;99.90;;;;;;7350930;32;20512;-57
2023/09/01 02:36:58;;;;;;;7.80;3.22;;;12.60;99.90;;;;;;7350484;32;20739;-57
2023/09/01 02:41:00;;;;;;;6.75;3.25;;;12.60;99.90;;;;;;7353450;32;20096;-57
2023/09/01 02:45:02;;;;;;;5.32;2.90;;;12.60;99.90;;;;;;7346694;32;20542;-57
2023/09/01 02:49:04;;;;;;;4.93;3.22;;;12.60;99.90;;;;;;7348592;32;20265;-58
2023/09/01 02:53:06;;;;;;;5.82;2.90;;;12.50;99.90;;;;;;7360203;32;20116;-56
2023/09/01 02:57:07;;;;;;;6.28;3.08;;;12.50;99.90;;;;;;7346978;32;20178;-57
2023/09/01 03:01:10;;;;;;;6.30;3.00;;;12.50;99.90;;;;;;7351436;32;20103;-57
2023/09/01 03:05:12;;;;;;;5.28;3.10;;;12.50;99.90;;;;;;7346105;32;20727;-58
2023/09/01 03:09:15;;;;;;;8.18;2.83;;;12.70;99.90;;;;;;7350603;32;20167;-57
2023/09/01 03:13:17;;;;;;;5.72;3.30;;;12.70;99.90;;;;;;7350526;32;20300;-57
2023/09/01 03:17:19;;;;;;;7.60;3.20;;;12.70;99.90;;;;;;7356691;32;20132;-58
2023/09/01 03:21:22;;;;;;;5.15;2.65;;;12.80;99.90;;;;;;7350390;32;20135;-57
2023/09/01 03:25:24;;;;;;;6.37;3.00;;;12.90;99.90;;;;;;7357720;32;20112;-58
2023/09/01 03:29:26;;;;;;;5.03;3.15;;;12.90;99.90;;;;;;7345752;32;20210;-57
2023/09/01 03:33:30;;;;;;;6.35;3.25;;;13.00;99.90;;;;;;7344731;32;20276;-57
2023/09/01 03:37:32;;;;;;;5.12;3.05;;;13.10;99.90;;;;;;7351989;32;20531;-57
2023/09/01 03:41:36;;;;;;;3.53;2.87;;;13.20;99.90;;;;;;7338355;32;20095;-58
2023/09/01 03:45:38;;;;;;;4.60;2.78;;;13.30;99.90;;;;;;7350111;32;20431;-57
2023/09/01 03:49:39;;;;;;;6.62;3.15;;;13.40;99.90;;;;;;7356277;32;20123;-57
2023/09/01 03:53:42;;;;;;;5.90;3.17;;;13.40;99.90;;;;;;7339112;32;20099;-57
2023/09/01 03:57:44;;;;;;;7.07;3.47;;;13.40;99.90;;;;;;7354229;32;20232;-57
2023/09/01 04:01:46;;;;;;;7.60;2.97;;;13.50;99.90;;;;;;7348332;32;20107;-57
2023/09/01 04:05:49;;;;;;;7.75;3.00;;;13.50;99.90;;;;;;7352518;32;20111;-57
2023/09/01 04:09:51;;;;;;;6.55;2.80;;;13.50;99.90;;;;;;7349371;32;20813;-57
2023/09/01 04:13:55;;;;;;;5.90;2.60;;;13.60;99.90;;;;;;7353027;32;20217;-57
2023/09/01 04:17:57;;;;;;;5.45;2.83;;;13.60;99.90;;;;;;7350760;32;20117;-57
2023/09/01 04:21:59;;;;;;;4.50;2.87;;;13.60;99.90;;;;;;7342504;32;20438;-57
2023/09/01 04:26:02;;;;;;;4.28;2.75;;;13.70;99.90;;;;;;7356625;32;20114;-58
2023/09/01 04:30:04;;;;;;;6.07;2.85;;;13.70;99.90;;;;;;7345406;32;20127;-57
2023/09/01 04:34:13;;;;;;;5.10;2.75;;;13.80;99.90;;;;;;7345417;32;20103;-57
2023/09/01 04:38:14;;;;;;;4.95;2.62;;;13.80;99.90;;;;;;7348573;32;20207;-58
2023/09/01 04:42:16;;;;;;;6.03;2.92;;;13.80;99.90;;;;;;7351922;32;20122;-57
2023/09/01 04:46:18;;;;;;;4.80;2.80;;;13.80;99.90;;;;;;7354835;32;20111;-58
2023/09/01 04:50:20;;;;;;;4.10;3.03;;;13.90;99.90;;;;;;7340762;32;20139;-58
2023/09/01 04:54:22;;;;;;;5.43;2.62;;;13.80;99.90;;;;;;7353398;32;20280;-58
2023/09/01 04:58:24;;;;;;;7.30;2.87;;;13.80;99.90;;;;;;7349212;32;20259;-58
2023/09/01 05:02:25;;;;;;;3.15;2.40;;;13.90;99.90;;;;;;7349275;32;20559;-58
2023/09/01 05:06:27;;;;;;;7.97;2.58;;;14.00;99.90;;;;;;7343495;32;20230;-58
2023/09/01 05:10:29;;;;;;;6.20;2.70;;;14.00;99.90;;;;;;7335978;32;20772;-58
2023/09/01 05:14:31;;;;;;;4.75;2.42;;;14.00;99.90;;;;;;7333388;32;20249;-58
2023/09/01 05:18:33;;;;;;;5.32;2.03;;;14.10;99.90;;;;;;7347735;32;20174;-59
2023/09/01 05:22:34;;;;;;;4.95;2.45;;;14.10;99.90;;;;;;7341464;32;20519;-58
2023/09/01 05:26:36;;;;;;;4.93;2.53;;;14.20;99.90;;;;;;7341134;32;20191;-58
2023/09/01 05:30:38;;;;;;;5.60;2.53;;;14.30;99.90;;;;;;7338679;32;20245;-58
2023/09/01 05:34:40;;;;;;;5.87;2.47;;;14.40;99.90;;;;;;7349777;32;20110;-58
2023/09/01 05:38:41;;;;;;;3.25;2.20;;;14.50;99.90;;;;;;7344339;32;20601;-58
2023/09/01 05:42:43;;;;;;;5.87;2.12;;;14.50;99.90;;;;;;7353052;32;20220;-58
2023/09/01 05:46:45;;;;;;;4.12;1.90;;;14.50;99.90;;;;;;7344447;32;20188;-58
2023/09/01 05:50:46;;;;;;;7.35;2.85;;;14.50;99.90;;;;;;7315271;32;20269;-57
2023/09/01 05:54:48;;;;;;;7.97;2.70;;;14.50;99.90;;;;;;7275616;32;20338;-58
2023/09/01 05:58:50;;;;;;;3.70;2.20;;;14.70;99.90;;;;;;7324180;32;20233;-58
2023/09/01 06:02:54;;;;;;;5.10;2.22;;;14.70;99.90;;;;;;7335714;32;20296;-58
2023/09/01 06:06:56;;;;;;;4.22;2.03;;;15.00;99.90;;;;;;7333757;32;20133;-56
2023/09/01 06:11:08;;;;;;;4.47;2.20;;;15.20;99.90;;;;;;7350770;32;20230;-56
2023/09/01 06:15:10;;;;;;;2.80;1.87;;;15.20;99.90;;;;;;7353663;32;20480;-57
2023/09/01 06:19:11;;;;;;;2.28;1.85;;;15.30;99.90;;;;;;7340919;32;20604;-57
2023/09/01 06:23:13;;;;;;;3.58;2.10;;;15.20;99.90;;;;;;7354210;32;20522;-57
2023/09/01 06:27:15;;;;;;;2.87;1.92;;;15.10;99.90;;;;;;7346180;32;20114;-58
2023/09/01 06:31:17;;;;;;;4.87;3.45;;;15.20;99.90;;;;;;7354045;32;20112;-57
2023/09/01 06:35:19;;;;;;;10.98;8.23;;;15.30;99.90;;;;;;7340876;32;20257;-58
2023/09/01 06:39:20;;;;;;;5.32;2.03;;;15.40;99.90;;;;;;7347249;32;20516;-57
2023/09/01 06:43:23;;;;;;;5.07;1.80;;;15.40;99.90;;;;;;7353071;32;20179;-57
2023/09/01 06:47:25;;;;;;;5.65;1.90;;;15.50;99.90;;;;;;7343553;32;20218;-57
2023/09/01 06:51:28;;;;;;;5.22;2.40;;;15.60;99.90;;;;;;7330523;32;20186;-57
2023/09/01 06:55:30;;;;;;;4.75;1.67;;;15.80;99.90;;;;;;7340652;32;22129;-57
2023/09/01 06:59:32;;;;;;;4.05;1.60;;;15.80;99.90;;;;;;7334529;32;20685;-57
2023/09/01 07:03:34;;;;;;;4.82;2.37;;;15.90;99.90;;;;;;7334787;32;20187;-57
2023/09/01 07:07:36;;;;;;;3.33;1.60;;;15.90;99.90;;;;;;7336199;32;20583;-56
2023/09/01 07:11:38;;;;;;;3.05;1.65;;;16.00;99.90;;;;;;7341608;32;20502;-57
2023/09/01 07:15:39;;;;;;;3.47;1.50;;;16.10;99.90;;;;;;7347167;32;20467;-56
2023/09/01 07:19:41;;;;;;;3.85;1.75;;;16.10;99.90;;;;;;7343490;32;20822;-56
2023/09/01 07:23:43;;;;;;;4.40;1.50;;;16.10;99.90;;;;;;7332925;32;20261;-57
2023/09/01 07:27:46;;;;;;;3.15;1.50;;;16.40;99.90;;;;;;7337846;32;20257;-58
2023/09/01 07:31:48;;;;;;;5.37;2.10;;;16.60;99.90;;;;;;7319974;32;20337;-57
2023/09/01 07:35:51;;;;;;;3.75;1.40;;;16.60;99.90;;;;;;7317146;32;20264;-56
2023/09/01 07:39:52;;;;;;;2.42;1.50;;;16.60;99.90;;;;;;7349772;32;20149;-57
2023/09/01 07:43:54;;;;;;;3.65;1.80;;;16.60;99.90;;;;;;7336676;32;20929;-57
2023/09/01 07:47:56;;;;;;;3.40;1.42;;;16.70;99.90;;;;;;7341755;32;20360;-56
2023/09/01 07:52:18;;;;;;;2.30;1.20;;;16.60;99.90;;;;;;7345967;32;20091;-56
2023/09/01 07:56:20;;;;;;;2.45;1.55;;;16.70;99.90;;;;;;7344259;32;20107;-56
2023/09/01 08:00:22;;;;;;;2.53;1.30;;;16.70;99.90;;;;;;7344969;32;20545;-56
2023/09/01 08:04:23;;;;;;;2.28;1.37;;;16.60;99.90;;;;;;7339281;32;20099;-56
2023/09/01 08:08:25;;;;;;;3.65;1.10;;;16.70;99.90;;;;;;7345431;32;20497;-56
2023/09/01 08:12:28;;;;;;;2.30;1.40;;;16.70;99.90;;;;;;7346982;32;20457;-56
2023/09/01 08:16:30;;;;;;;3.50;1.50;;;16.70;99.90;;;;;;7351970;32;20108;-56
2023/09/01 08:20:32;;;;;;;4.05;1.17;;;16.80;99.90;;;;;;7343662;32;20111;-56
2023/09/01 08:24:34;;;;;;;2.85;1.20;;;16.80;99.90;;;;;;7345485;32;20175;-57
2023/09/01 08:28:36;;;;;;;3.85;1.40;;;16.80;99.90;;;;;;7346385;32;20455;-56
2023/09/01 08:32:42;;;;;;;3.87;1.80;;;16.70;99.90;;;;;;7345223;32;20107;-56
2023/09/01 08:36:44;;;;;;;2.83;1.60;;;16.50;99.90;;;;;;7343414;32;20153;-57
2023/09/01 08:40:48;;;;;;;4.03;1.67;;;16.60;99.90;;;;;;7344697;32;20148;-57
2023/09/01 08:44:52;;;;;;;4.40;1.92;;;16.50;99.90;;;;;;7353663;32;20166;-57
2023/09/01 08:48:54;;;;;;;5.68;1.92;;;16.50;99.90;;;;;;7347115;32;20245;-56
2023/09/01 08:52:59;;;;;;;5.78;2.42;;;16.50;99.90;;;;;;7350869;32;20453;-57
2023/09/01 08:57:00;;;;;;;3.97;1.80;;;16.40;99.90;;;;;;7339275;32;20268;-57
2023/09/01 09:01:03;;;;;;;2.62;1.90;;;16.30;99.90;;;;;;7338024;32;20179;-58
2023/09/01 09:05:06;;;;;;;3.60;2.40;;;16.20;99.90;;;;;;7337160;32;20198;-57
2023/09/01 09:09:11;;;;;;;3.28;2.17;;;16.00;99.90;;;;;;7342992;32;20459;-56
2023/09/01 09:13:27;;;;;;;4.22;2.65;;;16.00;99.90;;;;;;7342317;32;20095;-57
2023/09/01 09:17:46;;;;;;;4.03;2.50;;;15.90;99.90;;;;;;7344473;32;20124;-56
2023/09/01 09:21:48;;;;;;;4.18;2.00;;;15.80;99.90;;;;;;7332419;32;20100;-57
2023/09/01 09:25:50;;;;;;;2.97;1.90;;;15.90;99.90;;;;;;7354071;32;20125;-57
2023/09/01 09:29:52;;;;;;;2.62;1.87;;;15.90;99.90;;;;;;7342561;32;20168;-57
2023/09/01 09:33:53;;;;;;;2.62;1.60;;;15.90;99.90;;;;;;7348880;32;20240;-57
2023/09/01 09:37:58;;;;;;;3.58;1.40;;;15.90;99.90;;;;;;7356764;32;20765;-57
2023/09/01 09:42:00;;;;;;;3.40;1.37;;;15.90;99.90;;;;;;7344476;32;20471;-56
2023/09/01 09:46:01;;;;;;;1.65;1.25;;;15.90;99.90;;;;;;7351936;32;20189;-57
2023/09/01 09:50:03;;;;;;;2.28;1.30;;;16.00;99.90;;;;;;7341936;32;20145;-58
2023/09/01 09:54:10;;;;;;;2.72;1.25;;;16.00;99.90;;;;;;7356695;32;20182;-57
2023/09/01 09:58:12;;;;;;;1.43;1.20;;;15.90;99.90;;;;;;7354084;32;20094;-58
2023/09/01 10:02:24;;;;;;;5.55;1.52;;;16.10;99.90;;;;;;7356858;32;21358;-56
2023/09/01 10:06:26;;;;;;;1.65;1.02;;;16.00;99.90;;;;;;7331533;32;20182;-56
2023/09/01 10:10:30;;;;;;;2.25;1.37;;;15.90;99.90;;;;;;7352148;32;20303;-56
2023/09/01 10:14:37;;;;;;;3.50;1.12;;;16.00;99.90;;;;;;7351958;32;20131;-57
2023/09/01 10:18:42;;;;;;;2.03;1.12;;;16.00;99.90;;;;;;7348244;32;20209;-57
2023/09/01 10:22:44;;;;;;;3.62;1.50;;;16.10;99.90;;;;;;7357553;32;20206;-56
2023/09/01 10:27:06;;;;;;;2.35;1.15;;;16.10;99.90;;;;;;7354942;32;20528;-56
2023/09/01 10:31:20;;;;;;;4.55;1.48;;;16.10;99.90;;;;;;7354939;32;20665;-56
2023/09/01 10:35:37;;;;;;;3.47;1.23;;;16.10;99.90;;;;;;7347987;32;20129;-56
2023/09/01 10:39:39;;;;;;;5.05;0.98;;;16.10;99.90;;;;;;7352067;32;20167;-57
2023/09/01 10:44:03;;;;;;;1.33;0.82;;;16.10;99.90;;;;;;7355532;32;20122;-57
2023/09/01 10:48:05;;;;;;;3.08;0.70;;;16.10;99.90;;;;;;7352566;32;20697;-56
2023/09/01 10:52:16;;;;;;;3.28;1.12;;;16.20;99.90;;;;;;7347836;32;20107;-56
2023/09/01 10:56:20;;;;;;;1.45;0.93;;;16.30;99.90;;;;;;7353217;32;20194;-58
2023/09/01 11:00:30;;;;;;;2.95;1.02;;;16.30;99.90;;;;;;7348167;32;20154;-57
2023/09/01 11:04:32;;;;;;;2.22;0.93;;;16.50;99.90;;;;;;7350116;32;20289;-58
2023/09/01 11:08:34;;;;;;;1.30;0.90;;;16.50;99.90;;;;;;7343867;32;20214;-57
2023/09/01 11:12:36;;;;;;;1.65;1.00;;;16.60;99.90;;;;;;7342375;32;20118;-58
2023/09/01 11:16:44;;;;;;;1.48;1.00;;;16.70;99.90;;;;;;7345259;32;20309;-57
2023/09/01 11:20:54;;;;;;;1.33;0.95;;;16.80;99.90;;;;;;7349941;32;20135;-57
2023/09/01 11:24:56;;;;;;;1.70;0.90;;;16.80;99.90;;;;;;7343180;32;20225;-58
2023/09/01 11:28:58;;;;;;;1.83;0.80;;;17.00;99.90;;;;;;7351153;32;20230;-57
2023/09/01 11:33:10;;;;;;;1.77;0.90;;;17.00;99.90;;;;;;7349160;32;20537;-58
2023/09/01 11:37:12;;;;;;;4.50;1.35;;;17.10;99.90;;;;;;7358507;32;20519;-57
2023/09/01 11:41:18;;;;;;;2.28;1.08;;;17.20;99.90;;;;;;7351947;32;20099;-57
2023/09/01 11:45:20;;;;;;;3.23;1.57;;;17.30;99.90;;;;;;7352518;32;20235;-57
2023/09/01 11:49:22;;;;;;;1.90;1.70;;;17.30;99.90;;;;;;7338860;32;20246;-57
2023/09/01 11:53:29;;;;;;;2.70;1.50;;;17.40;99.90;;;;;;7352022;32;20198;-57
2023/09/01 11:57:30;;;;;;;2.95;1.85;;;17.50;99.90;;;;;;7364273;32;20473;-62
2023/09/01 12:01:41;;;;;;;3.22;2.15;;;17.50;99.90;;;;;;7343649;32;20206;-57
2023/09/01 12:05:43;;;;;;;3.35;2.42;;;17.60;99.90;;;;;;7365579;32;20585;-57
2023/09/01 12:09:45;;;;;;;3.40;2.30;;;17.70;99.90;;;;;;7355728;32;20095;-57
2023/09/01 12:13:47;;;;;;;2.33;1.70;;;17.70;99.90;;;;;;7354094;32;20107;-57
2023/09/01 12:17:49;;;;;;;4.85;2.47;;;17.80;99.90;;;;;;7347067;32;20114;-56
2023/09/01 12:21:53;;;;;;;2.35;2.00;;;17.90;99.90;;;;;;7339974;32;20150;-57
2023/09/01 12:25:55;;;;;;;2.97;2.20;;;17.90;99.90;;;;;;7345702;32;20246;-58
2023/09/01 12:29:57;;;;;;;2.67;1.83;;;17.90;99.90;;;;;;7330584;32;20277;-57
2023/09/01 12:33:59;;;;;;;2.62;1.87;;;18.00;99.90;;;;;;7330619;32;20179;-57
2023/09/01 12:38:01;;;;;;;2.47;1.70;;;18.10;99.90;;;;;;7334911;32;20826;-57
2023/09/01 12:42:03;;;;;;;2.53;1.60;;;18.20;99.90;;;;;;7334895;32;20190;-58
2023/09/01 12:46:05;;;;;;;2.08;1.30;;;18.20;99.90;;;;;;7335785;32;20280;-56
2023/09/01 12:50:07;;;;;;;2.15;1.67;;;18.40;99.90;;;;;;7330672;32;20285;-57
2023/09/01 12:54:09;;;;;;;3.17;1.37;;;18.50;99.90;;;;;;7342806;32;20418;-57
2023/09/01 12:58:11;;;;;;;2.75;1.75;;;18.60;99.90;;;;;;7337571;32;20279;-56
2023/09/01 13:02:13;;;;;;;3.53;2.30;;;18.60;99.90;;;;;;7331756;32;20198;-57
2023/09/01 13:06:14;;;;;;;2.58;1.80;;;18.60;99.90;;;;;;7342054;32;20182;-56
2023/09/01 13:10:18;;;;;;;3.08;2.20;;;18.50;99.90;;;;;;7330474;32;20265;-57
2023/09/01 13:14:20;;;;;;;4.90;2.10;;;18.50;99.90;;;;;;7334858;32;20206;-56
2023/09/01 13:18:22;;;;;;;5.15;2.30;;;18.50;99.90;;;;;;7338454;32;20209;-57
2023/09/01 13:22:25;;;;;;;3.83;1.90;;;18.40;99.90;;;;;;7331903;32;20302;-56
2023/09/01 13:26:27;;;;;;;2.58;1.98;;;18.50;99.90;;;;;;7338937;32;20666;-57
2023/09/01 13:30:29;;;;;;;2.72;1.80;;;18.50;99.90;;;;;;7336771;32;20217;-57
2023/09/01 13:34:31;;;;;;;5.00;2.47;;;18.60;99.90;;;;;;7327994;32;20186;-56
2023/09/01 13:38:32;;;;;;;4.85;2.20;;;18.70;99.90;;;;;;7331555;32;20609;-58
2023/09/01 13:42:34;;;;;;;3.70;2.42;;;18.70;99.90;;;;;;7340189;32;20257;-57
2023/09/01 13:46:36;;;;;;;4.00;2.22;;;18.80;99.90;;;;;;7330629;32;20635;-57
2023/09/01 13:50:39;;;;;;;3.08;2.40;;;18.80;99.90;;;;;;7330988;32;20190;-57
2023/09/01 13:54:41;;;;;;;3.55;2.35;;;18.90;99.90;;;;;;7333107;32;20226;-58
2023/09/01 13:58:43;;;;;;;3.85;2.30;;;19.00;99.90;;;;;;7337256;32;20261;-57
2023/09/01 14:02:44;;;;;;;3.12;2.20;;;19.00;99.90;;;;;;7335599;32;20191;-57
2023/09/01 14:06:47;;;;;;;4.20;2.00;;;19.20;99.90;;;;;;7333034;32;20182;-57
2023/09/01 14:10:53;;;;;;;3.53;2.10;;;19.40;99.90;;;;;;7332618;32;20182;-57
2023/09/01 14:14:55;;;;;;;4.30;2.05;;;19.40;99.90;;;;;;7327587;32;20212;-57
2023/09/01 14:18:57;;;;;;;4.45;2.30;;;19.40;99.90;;;;;;7330260;32;20373;-56
2023/09/01 14:22:58;;;;;;;3.15;1.70;;;19.40;99.90;;;;;;7334744;32;20183;-57
2023/09/01 14:27:00;;;;;;;2.83;2.00;;;19.40;99.90;;;;;;7340758;32;20190;-56
2023/09/01 14:31:02;;;;;;;2.53;1.67;;;19.70;99.90;;;;;;7211566;32;21880;-55
2023/09/01 14:35:04;;;;;;;3.17;1.20;;;20.30;99.90;;;;;;7344339;32;20514;-55
2023/09/01 14:39:06;;;;;;;2.85;1.10;;;20.90;99.90;;;;;;7217870;32;20822;-55
2023/09/01 14:43:08;;;;;;;2.28;1.25;;;21.30;99.90;;;;;;7337911;32;21362;-55
2023/09/01 14:47:10;;;;;;;3.20;1.20;;;21.50;99.90;;;;;;7340399;32;20532;-55
2023/09/01 14:51:14;;;;;;;1.73;1.20;;;21.40;99.90;;;;;;7339030;32;20281;-55
2023/09/01 14:55:17;;;;;;;2.05;1.37;;;21.20;99.90;;;;;;7337509;32;20468;-56
2023/09/01 14:59:20;;;;;;;3.22;1.42;;;20.90;99.90;;;;;;7337887;32;20198;-55
2023/09/01 15:03:21;;;;;;;2.45;1.33;;;20.80;99.90;;;;;;7338427;32;20283;-55
2023/09/01 15:07:23;;;;;;;3.37;1.85;;;20.80;99.90;;;;;;7338050;32;20201;-55
2023/09/01 15:11:25;;;;;;;3.17;1.80;;;20.60;99.90;;;;;;7338313;32;22462;-58
2023/09/01 15:15:27;;;;;;;2.97;1.95;;;20.50;99.90;;;;;;7334513;32;20251;-57
2023/09/01 15:19:28;;;;;;;2.30;1.83;;;20.30;99.90;;;;;;7341458;32;20320;-57
2023/09/01 15:23:30;;;;;;;2.30;1.90;;;20.20;99.90;;;;;;7332638;32;20122;-57
2023/09/01 15:27:32;;;;;;;2.62;2.15;;;20.30;99.90;;;;;;7331429;32;20230;-58
2023/09/01 15:31:34;;;;;;;2.28;1.60;;;20.10;99.90;;;;;;7332281;32;20183;-58
2023/09/01 15:35:35;;;;;;;3.67;2.20;;;20.00;99.90;;;;;;7335945;32;20181;-57
2023/09/01 15:39:37;;;;;;;3.10;2.03;;;19.80;99.90;;;;;;7334294;32;20205;-57
2023/09/01 15:43:39;;;;;;;3.35;1.30;;;19.60;99.90;;;;;;7337569;32;20257;-57
2023/09/01 15:47:41;;;;;;;1.80;0.80;;;19.40;99.90;;;;;;7349173;32;20107;-57
2023/09/01 15:51:44;;;;;;;1.12;0.80;;;19.10;99.90;;;;;;7341824;32;20106;-58
2023/09/01 15:55:46;;;;;;;0.85;0.73;;;19.00;99.90;;;;;;7344498;32;20174;-57
2023/09/01 15:59:48;;;;;;;0.90;0.60;;;18.80;99.90;;;;;;7345029;32;20568;-57
2023/09/01 16:03:50;;;;;;;1.77;0.90;;;18.80;99.90;;;;;;7345653;32;20160;-57
2023/09/01 16:07:57;;;;;;;1.08;0.50;;;18.90;99.90;;;;;;7348301;32;20199;-57
2023/09/01 16:11:59;;;;;;;1.62;0.50;;;18.90;99.90;;;;;;7296092;32;20109;-56
2023/09/01 16:16:03;;;;;;;1.37;0.50;;;19.10;99.90;;;;;;7344819;32;20100;-56
2023/09/01 16:20:06;;;;;;;0.50;0.50;;;19.20;99.90;;;;;;7344599;32;20351;-57
2023/09/01 16:24:08;;;;;;;0.65;0.45;;;19.40;99.90;;;;;;7347342;32;20550;-57
2023/09/01 16:28:10;;;;;;;0.50;0.30;;;19.30;99.90;;;;;;7270113;32;20166;-57
2023/09/01 16:32:12;;;;;;;1.05;0.60;;;19.30;99.90;;;;;;7343239;32;20127;-57
2023/09/01 16:36:13;;;;;;;2.28;1.02;;;19.40;99.90;;;;;;7344445;32;20187;-56
2023/09/01 16:40:15;;;;;;;0.75;0.52;;;19.40;99.90;;;;;;7345112;32;20146;-57
2023/09/01 16:44:17;;;;;;;1.87;0.60;;;19.20;99.90;;;;;;7286692;32;20497;-56
2023/09/01 16:48:20;;;;;;;2.03;1.23;;;19.20;99.90;;;;;;7351699;32;20191;-57
2023/09/01 16:52:22;;;;;;;2.78;0.95;;;19.10;99.90;;;;;;7347976;32;20114;-57
2023/09/01 16:56:23;;;;;;;1.50;1.00;;;19.10;99.90;;;;;;7349334;32;20114;-57
2023/09/01 17:00:26;;;;;;;1.02;0.70;;;18.80;99.90;;;;;;7348857;32;20201;-57
2023/09/01 17:04:29;;;;;;;2.03;0.90;;;18.70;99.90;;;;;;7353245;32;20125;-57
2023/09/01 17:08:31;;;;;;;4.90;1.12;;;18.60;99.90;;;;;;7345810;32;20174;-57
2023/09/01 17:12:33;;;;;;;3.65;1.20;;;18.50;99.90;;;;;;7282699;32;21927;-57
2023/09/01 17:16:35;;;;;;;2.75;1.10;;;18.40;99.90;;;;;;7342705;32;20198;-57
2023/09/01 17:20:52;;;;;;;2.62;1.20;;;18.30;99.90;;;;;;7344245;32;20099;-57
2023/09/01 17:24:54;;;;;;;1.67;1.15;;;18.30;99.90;;;;;;7349067;32;20125;-57
2023/09/01 17:28:56;;;;;;;1.60;1.00;;;18.20;99.90;;;;;;7284318;32;20087;-57
2023/09/01 17:32:57;;;;;;;4.15;1.00;;;18.10;99.90;;;;;;7345551;32;20180;-57
2023/09/01 17:36:59;;;;;;;2.72;1.08;;;18.00;99.90;;;;;;7345006;32;20115;-57
2023/09/01 17:41:03;;;;;;;3.05;1.30;;;17.80;99.90;;;;;;7342025;32;20728;-58
2023/09/01 17:45:05;;;;;;;2.75;1.15;;;17.70;99.90;;;;;;7343976;32;20178;-57
2023/09/01 17:49:07;;;;;;;3.20;1.00;;;17.60;99.90;;;;;;7349123;32;20253;-58
2023/09/01 17:53:09;;;;;;;3.15;1.25;;;17.50;99.90;;;;;;7350697;32;20103;-58
2023/09/01 17:57:11;;;;;;;2.50;1.52;;;17.40;99.90;;;;;;7349252;32;20551;-58
2023/09/01 18:01:14;;;;;;;3.87;1.73;;;17.30;99.90;;;;;;7355644;32;20118;-59
2023/09/01 18:05:15;;;;;;;3.53;1.85;;;17.20;99.90;;;;;;7355512;32;20107;-58
2023/09/01 18:09:17;;;;;;;3.50;1.67;;;17.10;99.90;;;;;;7349483;32;20295;-58
2023/09/01 18:13:19;;;;;;;5.75;1.80;;;16.90;99.90;;;;;;7352980;32;20537;-58
2023/09/01 18:17:22;;;;;;;3.10;1.62;;;16.80;99.90;;;;;;7340675;32;20222;-58
2023/09/01 18:21:24;;;;;;;6.53;1.52;;;16.70;99.90;;;;;;7340782;32;20386;-58
2023/09/01 18:25:27;;;;;;;2.87;1.25;;;16.60;99.90;;;;;;7322295;32;20270;-58
2023/09/01 18:29:28;;;;;;;3.85;1.90;;;16.40;99.90;;;;;;7252148;32;20174;-57
2023/09/01 18:33:33;;;;;;;3.28;1.75;;;16.40;99.90;;;;;;7355385;32;20444;-57
2023/09/01 18:37:36;;;;;;;2.15;1.60;;;16.20;99.90;;;;;;7355830;32;20388;-57
2023/09/01 18:41:39;;;;;;;2.12;1.85;;;16.10;99.90;;;;;;7354290;32;20107;-57
2023/09/01 18:45:43;;;;;;;2.87;1.52;;;16.10;99.90;;;;;;7348693;32;20104;-57
2023/09/01 18:49:51;;;;;;;2.83;1.70;;;16.00;99.90;;;;;;7355873;32;20246;-57
2023/09/01 18:53:53;;;;;;;3.08;1.70;;;15.80;99.90;;;;;;7352139;32;20126;-57
2023/09/01 18:57:55;;;;;;;5.40;2.20;;;15.70;99.90;;;;;;7332589;32;20128;-56
2023/09/01 19:01:58;;;;;;;5.50;2.35;;;15.70;99.90;;;;;;7347452;32;20282;-57
2023/09/01 19:06:00;;;;;;;3.40;1.87;;;15.60;99.90;;;;;;7347920;32;20111;-56
2023/09/01 19:10:14;;;;;;;5.68;1.95;;;15.50;99.90;;;;;;7340560;32;20107;-57
2023/09/01 19:14:19;;;;;;;4.72;2.20;;;15.40;99.90;;;;;;7344111;32;20373;-57
2023/09/01 19:18:25;;;;;;;9.30;2.42;;;15.40;99.90;;;;;;7352283;32;20154;-57
2023/09/01 19:22:27;;;;;;;3.67;2.33;;;15.30;99.90;;;;;;7357713;32;20155;-57
2023/09/01 19:26:29;;;;;;;5.82;2.20;;;15.20;99.90;;;;;;7348149;32;20099;-58
2023/09/01 19:30:31;;;;;;;4.62;2.45;;;15.10;99.90;;;;;;7351381;32;20141;-56
2023/09/01 19:34:34;;;;;;;5.18;2.37;;;15.00;99.90;;;;;;7274652;32;20159;-56
2023/09/01 19:38:36;;;;;;;3.35;2.33;;;15.00;99.90;;;;;;7356810;32;20186;-57
2023/09/01 19:42:38;;;;;;;5.68;2.58;;;14.90;99.90;;;;;;7352661;32;21015;-58
2023/09/01 19:46:40;;;;;;;3.03;2.40;;;14.80;99.90;;;;;;7351772;32;20227;-58
2023/09/01 19:50:42;;;;;;;4.57;2.50;;;14.90;99.90;;;;;;7350896;32;20100;-58
2023/09/01 19:54:44;;;;;;;9.32;3.40;;;14.90;99.90;;;;;;7293181;32;20098;-56
2023/09/01 19:58:48;;;;;;;4.45;2.90;;;14.90;99.90;;;;;;7350587;32;20111;-57
2023/09/01 20:02:55;;;;;;;6.18;3.10;;;14.90;99.90;;;;;;7338218;32;20498;-58
2023/09/01 20:06:57;;;;;;;4.50;2.53;;;14.90;99.90;;;;;;7346061;32;20266;-56
2023/09/01 20:10:59;;;;;;;7.85;3.75;;;15.00;99.90;;;;;;7344293;32;20127;-57
2023/09/01 20:15:00;;;;;;;5.35;3.20;;;15.00;99.90;;;;;;7343324;32;20174;-57
2023/09/01 20:19:17;;;;;;;5.35;3.20;;;15.10;99.90;;;;;;7350738;32;20100;-58
2023/09/01 20:23:19;;;;;;;6.53;3.03;;;15.10;99.90;;;;;;7349381;32;20129;-58
2023/09/01 20:27:21;;;;;;;5.40;3.65;;;15.10;99.90;;;;;;7347149;32;20600;-58
2023/09/01 20:31:23;;;;;;;5.05;3.70;;;15.30;99.90;;;;;;7348179;32;20522;-58
2023/09/01 20:35:25;;;;;;;7.60;5.12;;;15.30;99.90;;;;;;7349920;32;20575;-57
2023/09/01 20:39:26;;;;;;;5.55;4.90;;;15.20;99.90;;;;;;7338307;32;20202;-57
2023/09/01 20:43:28;;;;;;;7.07;4.18;;;15.20;99.90;;;;;;7343623;32;20121;-59
2023/09/01 20:47:31;;;;;;;8.25;4.53;;;15.10;99.90;;;;;;7279826;32;20208;-56
2023/09/01 20:51:33;;;;;;;6.30;4.85;;;15.10;99.90;;;;;;7331651;32;20391;-56
2023/09/01 20:55:35;;;;;;;5.90;4.93;;;15.10;99.90;;;;;;7337176;32;20454;-56
2023/09/01 20:59:36;;;;;;;6.32;4.78;;;15.10;99.90;;;;;;7330691;32;20753;-56
2023/09/01 21:03:38;;;;;;;8.00;5.65;;;15.00;99.90;;;;;;7333602;32;20671;-55